sensor_id;sensor_type;location;lat;lon;timestamp;P1;durP1;ratioP1;P2;durP2;ratioP2
37221;SDS011;23119;51.842;-2.230;2023-06-14T00:00:14;4.93;;;2.78;;
37221;SDS011;23119;51.842;-2.230;2023-06-14T00:02:43;5.68;;;2.70;;
37221;SDS011;23119;51.842;-2.230;2023-06-14T00:05:12;9.15;;;2.83;;
37221;SDS011;23119;51.842;-2.230;2023-06-14T00:07:42;5.68;;;2.85;;
37221;SDS011;23119;51.842;-2.230;2023-06-14T00:10:11;5.38;;;2.60;;
37221;SDS011;23119;51.842;-2.230;2023-06-14T00:12:39;6.60;;;2.70;;
37221;SDS011;23119;51.842;-2.230;2023-06-14T00:15:05;4.40;;;2.75;;
37221;SDS011;23119;51.842;-2.230;2023-06-14T00:17:32;5.93;;;3.60;;
37221;SDS011;23119;51.842;-2.230;2023-06-14T00:19:59;10.15;;;3.28;;
37221;SDS011;23119;51.842;-2.230;2023-06-14T00:22:27;5.78;;;3.25;;
37221;SDS011;23119;51.842;-2.230;2023-06-14T00:24:53;5.60;;;2.63;;
37221;SDS011;23119;51.842;-2.230;2023-06-14T00:27:19;7.53;;;2.63;;
37221;SDS011;23119;51.842;-2.230;2023-06-14T00:29:47;4.80;;;2.30;;
37221;SDS011;23119;51.842;-2.230;2023-06-14T00:32:15;8.02;;;3.20;;
37221;SDS011;23119;51.842;-2.230;2023-06-14T00:34:46;4.18;;;2.30;;
37221;SDS011;23119;51.842;-2.230;2023-06-14T00:37:14;5.28;;;3.20;;
37221;SDS011;23119;51.842;-2.230;2023-06-14T00:39:40;3.67;;;2.50;;
37221;SDS011;23119;51.842;-2.230;2023-06-14T00:42:06;5.35;;;2.75;;
37221;SDS011;23119;51.842;-2.230;2023-06-14T00:44:49;7.03;;;3.08;;
37221;SDS011;23119;51.842;-2.230;2023-06-14T00:47:18;8.43;;;3.50;;
37221;SDS011;23119;51.842;-2.230;2023-06-14T00:49:46;8.27;;;3.30;;
37221;SDS011;23119;51.842;-2.230;2023-06-14T00:52:14;6.80;;;3.45;;
37221;SDS011;23119;51.842;-2.230;2023-06-14T00:54:43;8.70;;;3.30;;
37221;SDS011;23119;51.842;-2.230;2023-06-14T00:57:09;8.23;;;3.67;;
37221;SDS011;23119;51.842;-2.230;2023-06-14T00:59:57;10.02;;;3.97;;
37221;SDS011;23119;51.842;-2.230;2023-06-14T01:02:24;7.80;;;2.80;;
37221;SDS011;23119;51.842;-2.230;2023-06-14T01:04:50;8.65;;;3.30;;
37221;SDS011;23119;51.842;-2.230;2023-06-14T01:15:42;7.70;;;3.22;;
37221;SDS011;23119;51.842;-2.230;2023-06-14T01:18:11;7.80;;;3.13;;
37221;SDS011;23119;51.842;-2.230;2023-06-14T01:20:42;5.47;;;2.70;;
37221;SDS011;23119;51.842;-2.230;2023-06-14T01:23:10;8.98;;;3.03;;
37221;SDS011;23119;51.842;-2.230;2023-06-14T01:25:39;6.05;;;2.97;;
37221;SDS011;23119;51.842;-2.230;2023-06-14T01:28:08;4.95;;;2.50;;
37221;SDS011;23119;51.842;-2.230;2023-06-14T01:30:39;6.80;;;2.88;;
37221;SDS011;23119;51.842;-2.230;2023-06-14T01:33:19;6.32;;;2.80;;
37221;SDS011;23119;51.842;-2.230;2023-06-14T01:35:52;8.27;;;2.58;;
37221;SDS011;23119;51.842;-2.230;2023-06-14T01:38:21;9.27;;;2.13;;
37221;SDS011;23119;51.842;-2.230;2023-06-14T01:40:49;5.75;;;2.60;;
37221;SDS011;23119;51.842;-2.230;2023-06-14T01:43:20;4.45;;;2.15;;
37221;SDS011;23119;51.842;-2.230;2023-06-14T01:45:47;5.18;;;1.75;;
37221;SDS011;23119;51.842;-2.230;2023-06-14T01:48:16;4.57;;;2.38;;
37221;SDS011;23119;51.842;-2.230;2023-06-14T01:50:45;5.75;;;1.67;;
37221;SDS011;23119;51.842;-2.230;2023-06-14T01:53:12;4.90;;;2.13;;
37221;SDS011;23119;51.842;-2.230;2023-06-14T01:55:38;6.03;;;1.65;;
37221;SDS011;23119;51.842;-2.230;2023-06-14T01:58:08;3.97;;;1.67;;
37221;SDS011;23119;51.842;-2.230;2023-06-14T02:00:34;3.05;;;1.58;;
37221;SDS011;23119;51.842;-2.230;2023-06-14T02:03:02;3.35;;;1.23;;
37221;SDS011;23119;51.842;-2.230;2023-06-14T02:08:00;5.40;;;1.20;;
37221;SDS011;23119;51.842;-2.230;2023-06-14T02:10:28;2.80;;;1.30;;
37221;SDS011;23119;51.842;-2.230;2023-06-14T02:12:54;3.67;;;1.10;;
37221;SDS011;23119;51.842;-2.230;2023-06-14T02:15:19;5.18;;;1.20;;
37221;SDS011;23119;51.842;-2.230;2023-06-14T02:17:47;3.92;;;1.63;;
37221;SDS011;23119;51.842;-2.230;2023-06-14T02:20:14;5.18;;;1.90;;
37221;SDS011;23119;51.842;-2.230;2023-06-14T02:22:40;3.13;;;1.00;;
37221;SDS011;23119;51.842;-2.230;2023-06-14T02:25:09;2.50;;;0.70;;
37221;SDS011;23119;51.842;-2.230;2023-06-14T02:27:35;2.38;;;0.90;;
37221;SDS011;23119;51.842;-2.230;2023-06-14T02:30:01;4.40;;;1.10;;
37221;SDS011;23119;51.842;-2.230;2023-06-14T02:32:32;4.88;;;0.93;;
37221;SDS011;23119;51.842;-2.230;2023-06-14T02:35:00;5.50;;;0.80;;
37221;SDS011;23119;51.842;-2.230;2023-06-14T02:37:26;5.05;;;1.35;;
37221;SDS011;23119;51.842;-2.230;2023-06-14T02:39:52;6.15;;;0.93;;
37221;SDS011;23119;51.842;-2.230;2023-06-14T02:42:17;4.40;;;0.95;;
37221;SDS011;23119;51.842;-2.230;2023-06-14T02:44:43;5.75;;;1.00;;
37221;SDS011;23119;51.842;-2.230;2023-06-14T02:47:10;3.85;;;1.00;;
37221;SDS011;23119;51.842;-2.230;2023-06-14T02:49:35;3.45;;;0.90;;
37221;SDS011;23119;51.842;-2.230;2023-06-14T02:52:01;4.97;;;0.95;;
37221;SDS011;23119;51.842;-2.230;2023-06-14T02:54:27;5.40;;;1.10;;
37221;SDS011;23119;51.842;-2.230;2023-06-14T02:56:53;6.18;;;1.23;;
37221;SDS011;23119;51.842;-2.230;2023-06-14T02:59:19;5.45;;;0.90;;
37221;SDS011;23119;51.842;-2.230;2023-06-14T03:01:46;4.82;;;0.95;;
37221;SDS011;23119;51.842;-2.230;2023-06-14T03:04:12;6.07;;;0.80;;
37221;SDS011;23119;51.842;-2.230;2023-06-14T03:06:37;3.35;;;0.90;;
37221;SDS011;23119;51.842;-2.230;2023-06-14T03:09:04;5.82;;;1.17;;
37221;SDS011;23119;51.842;-2.230;2023-06-14T03:11:30;4.97;;;1.17;;
37221;SDS011;23119;51.842;-2.230;2023-06-14T03:13:57;5.68;;;1.00;;
37221;SDS011;23119;51.842;-2.230;2023-06-14T03:16:23;5.25;;;1.30;;
37221;SDS011;23119;51.842;-2.230;2023-06-14T03:18:51;3.15;;;0.85;;
37221;SDS011;23119;51.842;-2.230;2023-06-14T03:21:18;3.17;;;0.98;;
37221;SDS011;23119;51.842;-2.230;2023-06-14T03:23:45;3.75;;;0.98;;
37221;SDS011;23119;51.842;-2.230;2023-06-14T03:26:18;6.32;;;1.40;;
37221;SDS011;23119;51.842;-2.230;2023-06-14T03:28:47;2.85;;;0.80;;
37221;SDS011;23119;51.842;-2.230;2023-06-14T03:31:16;3.40;;;1.00;;
37221;SDS011;23119;51.842;-2.230;2023-06-14T03:33:42;4.45;;;1.10;;
37221;SDS011;23119;51.842;-2.230;2023-06-14T03:36:08;5.55;;;1.20;;
37221;SDS011;23119;51.842;-2.230;2023-06-14T03:38:36;4.57;;;0.85;;
37221;SDS011;23119;51.842;-2.230;2023-06-14T03:41:12;3.80;;;1.13;;
37221;SDS011;23119;51.842;-2.230;2023-06-14T03:43:38;7.03;;;1.20;;
37221;SDS011;23119;51.842;-2.230;2023-06-14T03:46:04;6.15;;;1.10;;
37221;SDS011;23119;51.842;-2.230;2023-06-14T03:48:30;5.43;;;1.08;;
37221;SDS011;23119;51.842;-2.230;2023-06-14T03:50:58;3.83;;;0.98;;
37221;SDS011;23119;51.842;-2.230;2023-06-14T03:53:23;3.55;;;1.00;;
37221;SDS011;23119;51.842;-2.230;2023-06-14T03:55:49;5.05;;;1.30;;
37221;SDS011;23119;51.842;-2.230;2023-06-14T03:58:17;6.25;;;0.90;;
37221;SDS011;23119;51.842;-2.230;2023-06-14T04:00:43;3.28;;;1.20;;
37221;SDS011;23119;51.842;-2.230;2023-06-14T04:03:10;5.93;;;1.20;;
37221;SDS011;23119;51.842;-2.230;2023-06-14T04:05:38;3.85;;;1.38;;
37221;SDS011;23119;51.842;-2.230;2023-06-14T04:08:07;5.93;;;1.17;;
37221;SDS011;23119;51.842;-2.230;2023-06-14T04:10:34;3.15;;;1.15;;
37221;SDS011;23119;51.842;-2.230;2023-06-14T04:13:00;2.28;;;1.08;;
37221;SDS011;23119;51.842;-2.230;2023-06-14T04:15:26;3.38;;;1.42;;
37221;SDS011;23119;51.842;-2.230;2023-06-14T04:17:53;3.30;;;0.80;;
37221;SDS011;23119;51.842;-2.230;2023-06-14T04:20:24;8.43;;;1.70;;
37221;SDS011;23119;51.842;-2.230;2023-06-14T04:22:50;4.07;;;1.08;;
37221;SDS011;23119;51.842;-2.230;2023-06-14T04:25:17;2.50;;;1.42;;
37221;SDS011;23119;51.842;-2.230;2023-06-14T04:27:43;5.07;;;1.13;;
37221;SDS011;23119;51.842;-2.230;2023-06-14T04:30:09;5.25;;;1.58;;
37221;SDS011;23119;51.842;-2.230;2023-06-14T04:32:35;4.15;;;1.08;;
37221;SDS011;23119;51.842;-2.230;2023-06-14T04:35:09;4.22;;;1.00;;
37221;SDS011;23119;51.842;-2.230;2023-06-14T04:37:37;8.38;;;1.50;;
37221;SDS011;23119;51.842;-2.230;2023-06-14T04:40:07;9.55;;;1.23;;
37221;SDS011;23119;51.842;-2.230;2023-06-14T04:42:33;6.53;;;1.75;;
37221;SDS011;23119;51.842;-2.230;2023-06-14T04:45:01;6.00;;;1.33;;
37221;SDS011;23119;51.842;-2.230;2023-06-14T04:47:27;5.90;;;1.50;;
37221;SDS011;23119;51.842;-2.230;2023-06-14T04:49:54;3.58;;;1.58;;
37221;SDS011;23119;51.842;-2.230;2023-06-14T04:52:24;5.68;;;1.30;;
37221;SDS011;23119;51.842;-2.230;2023-06-14T04:54:51;3.95;;;1.30;;
37221;SDS011;23119;51.842;-2.230;2023-06-14T04:57:19;3.70;;;1.17;;
37221;SDS011;23119;51.842;-2.230;2023-06-14T04:59:47;4.35;;;1.25;;
37221;SDS011;23119;51.842;-2.230;2023-06-14T05:02:13;4.05;;;1.30;;
37221;SDS011;23119;51.842;-2.230;2023-06-14T05:04:39;7.70;;;1.20;;
37221;SDS011;23119;51.842;-2.230;2023-06-14T05:07:06;4.50;;;1.10;;
37221;SDS011;23119;51.842;-2.230;2023-06-14T05:09:33;5.97;;;1.45;;
37221;SDS011;23119;51.842;-2.230;2023-06-14T05:12:06;5.07;;;1.30;;
37221;SDS011;23119;51.842;-2.230;2023-06-14T05:14:33;3.55;;;1.20;;
37221;SDS011;23119;51.842;-2.230;2023-06-14T05:16:59;3.58;;;0.90;;
37221;SDS011;23119;51.842;-2.230;2023-06-14T05:19:25;5.03;;;1.10;;
37221;SDS011;23119;51.842;-2.230;2023-06-14T05:21:51;5.75;;;1.52;;
37221;SDS011;23119;51.842;-2.230;2023-06-14T05:24:18;7.45;;;1.95;;
37221;SDS011;23119;51.842;-2.230;2023-06-14T05:26:44;4.78;;;1.10;;
37221;SDS011;23119;51.842;-2.230;2023-06-14T05:29:13;3.53;;;1.10;;
37221;SDS011;23119;51.842;-2.230;2023-06-14T05:31:39;6.18;;;0.90;;
37221;SDS011;23119;51.842;-2.230;2023-06-14T05:34:10;4.32;;;1.77;;
37221;SDS011;23119;51.842;-2.230;2023-06-14T05:36:36;3.45;;;1.10;;
37221;SDS011;23119;51.842;-2.230;2023-06-14T05:39:02;4.72;;;1.13;;
37221;SDS011;23119;51.842;-2.230;2023-06-14T05:41:29;7.25;;;1.40;;
37221;SDS011;23119;51.842;-2.230;2023-06-14T05:43:55;5.53;;;1.20;;
37221;SDS011;23119;51.842;-2.230;2023-06-14T05:46:21;3.33;;;1.20;;
37221;SDS011;23119;51.842;-2.230;2023-06-14T05:48:49;9.82;;;2.03;;
37221;SDS011;23119;51.842;-2.230;2023-06-14T05:51:18;4.55;;;1.13;;
37221;SDS011;23119;51.842;-2.230;2023-06-14T05:53:47;6.15;;;1.42;;
37221;SDS011;23119;51.842;-2.230;2023-06-14T05:56:14;3.92;;;1.13;;
37221;SDS011;23119;51.842;-2.230;2023-06-14T05:58:43;5.93;;;1.40;;
37221;SDS011;23119;51.842;-2.230;2023-06-14T06:01:11;6.32;;;1.17;;
37221;SDS011;23119;51.842;-2.230;2023-06-14T06:03:41;5.70;;;1.77;;
37221;SDS011;23119;51.842;-2.230;2023-06-14T06:06:12;4.70;;;1.20;;
37221;SDS011;23119;51.842;-2.230;2023-06-14T06:08:39;2.63;;;0.93;;
37221;SDS011;23119;51.842;-2.230;2023-06-14T06:11:05;4.20;;;1.48;;
37221;SDS011;23119;51.842;-2.230;2023-06-14T06:13:36;3.50;;;1.05;;
37221;SDS011;23119;51.842;-2.230;2023-06-14T06:16:11;3.67;;;1.52;;
37221;SDS011;23119;51.842;-2.230;2023-06-14T06:18:37;5.38;;;1.10;;
37221;SDS011;23119;51.842;-2.230;2023-06-14T06:21:03;5.50;;;1.30;;
37221;SDS011;23119;51.842;-2.230;2023-06-14T06:23:29;3.53;;;1.20;;
37221;SDS011;23119;51.842;-2.230;2023-06-14T06:25:55;3.10;;;1.25;;
37221;SDS011;23119;51.842;-2.230;2023-06-14T06:28:21;4.88;;;1.20;;
37221;SDS011;23119;51.842;-2.230;2023-06-14T06:30:49;3.08;;;0.93;;
37221;SDS011;23119;51.842;-2.230;2023-06-14T06:33:15;4.18;;;1.02;;
37221;SDS011;23119;51.842;-2.230;2023-06-14T06:35:41;2.88;;;1.30;;
37221;SDS011;23119;51.842;-2.230;2023-06-14T06:38:07;4.15;;;1.30;;
37221;SDS011;23119;51.842;-2.230;2023-06-14T06:40:35;5.80;;;1.20;;
37221;SDS011;23119;51.842;-2.230;2023-06-14T06:43:02;6.72;;;1.27;;
37221;SDS011;23119;51.842;-2.230;2023-06-14T06:45:30;6.00;;;1.35;;
37221;SDS011;23119;51.842;-2.230;2023-06-14T06:47:59;4.35;;;1.30;;
37221;SDS011;23119;51.842;-2.230;2023-06-14T06:50:25;3.85;;;1.58;;
37221;SDS011;23119;51.842;-2.230;2023-06-14T06:52:53;4.20;;;1.20;;
37221;SDS011;23119;51.842;-2.230;2023-06-14T06:55:26;6.70;;;1.50;;
37221;SDS011;23119;51.842;-2.230;2023-06-14T06:57:54;4.22;;;1.38;;
37221;SDS011;23119;51.842;-2.230;2023-06-14T07:00:22;6.63;;;1.20;;
37221;SDS011;23119;51.842;-2.230;2023-06-14T07:02:51;5.30;;;1.20;;
37221;SDS011;23119;51.842;-2.230;2023-06-14T07:05:17;6.32;;;2.13;;
37221;SDS011;23119;51.842;-2.230;2023-06-14T07:07:45;3.63;;;1.27;;
37221;SDS011;23119;51.842;-2.230;2023-06-14T07:10:11;4.25;;;1.50;;
37221;SDS011;23119;51.842;-2.230;2023-06-14T07:12:37;5.72;;;1.60;;
37221;SDS011;23119;51.842;-2.230;2023-06-14T07:15:07;3.30;;;1.35;;
37221;SDS011;23119;51.842;-2.230;2023-06-14T07:17:33;4.30;;;1.45;;
37221;SDS011;23119;51.842;-2.230;2023-06-14T07:20:03;5.95;;;1.10;;
37221;SDS011;23119;51.842;-2.230;2023-06-14T07:22:32;4.00;;;1.47;;
37221;SDS011;23119;51.842;-2.230;2023-06-14T07:25:05;9.05;;;1.35;;
37221;SDS011;23119;51.842;-2.230;2023-06-14T07:27:38;4.13;;;1.13;;
37221;SDS011;23119;51.842;-2.230;2023-06-14T07:30:07;6.93;;;1.90;;
37221;SDS011;23119;51.842;-2.230;2023-06-14T07:32:33;5.05;;;1.40;;
37221;SDS011;23119;51.842;-2.230;2023-06-14T07:34:59;5.38;;;1.30;;
37221;SDS011;23119;51.842;-2.230;2023-06-14T07:37:25;5.18;;;1.40;;
37221;SDS011;23119;51.842;-2.230;2023-06-14T07:39:50;4.13;;;1.52;;
37221;SDS011;23119;51.842;-2.230;2023-06-14T07:42:19;6.50;;;1.42;;
37221;SDS011;23119;51.842;-2.230;2023-06-14T07:44:50;9.95;;;1.33;;
37221;SDS011;23119;51.842;-2.230;2023-06-14T07:47:18;4.20;;;1.17;;
37221;SDS011;23119;51.842;-2.230;2023-06-14T07:49:50;5.80;;;1.90;;
37221;SDS011;23119;51.842;-2.230;2023-06-14T07:52:19;5.38;;;1.38;;
37221;SDS011;23119;51.842;-2.230;2023-06-14T07:54:45;3.97;;;1.30;;
37221;SDS011;23119;51.842;-2.230;2023-06-14T07:57:15;5.13;;;1.15;;
37221;SDS011;23119;51.842;-2.230;2023-06-14T07:59:41;5.30;;;1.40;;
37221;SDS011;23119;51.842;-2.230;2023-06-14T08:02:09;7.32;;;1.92;;
37221;SDS011;23119;51.842;-2.230;2023-06-14T08:04:35;5.45;;;1.30;;
37221;SDS011;23119;51.842;-2.230;2023-06-14T08:07:01;4.78;;;1.30;;
37221;SDS011;23119;51.842;-2.230;2023-06-14T08:09:29;5.18;;;1.20;;
37221;SDS011;23119;51.842;-2.230;2023-06-14T08:11:58;6.13;;;2.17;;
37221;SDS011;23119;51.842;-2.230;2023-06-14T08:14:23;7.93;;;1.40;;
37221;SDS011;23119;51.842;-2.230;2023-06-14T08:16:49;6.53;;;1.92;;
37221;SDS011;23119;51.842;-2.230;2023-06-14T08:19:15;8.75;;;1.20;;
37221;SDS011;23119;51.842;-2.230;2023-06-14T08:21:44;6.75;;;1.63;;
37221;SDS011;23119;51.842;-2.230;2023-06-14T08:24:11;7.25;;;1.67;;
37221;SDS011;23119;51.842;-2.230;2023-06-14T08:26:40;8.05;;;1.83;;
37221;SDS011;23119;51.842;-2.230;2023-06-14T08:29:09;7.38;;;1.30;;
37221;SDS011;23119;51.842;-2.230;2023-06-14T08:31:34;5.85;;;1.70;;
37221;SDS011;23119;51.842;-2.230;2023-06-14T08:34:03;8.13;;;1.42;;
37221;SDS011;23119;51.842;-2.230;2023-06-14T08:36:34;8.80;;;1.50;;
37221;SDS011;23119;51.842;-2.230;2023-06-14T08:39:00;6.15;;;1.40;;
37221;SDS011;23119;51.842;-2.230;2023-06-14T08:41:34;6.47;;;1.77;;
37221;SDS011;23119;51.842;-2.230;2023-06-14T08:44:01;8.07;;;1.42;;
37221;SDS011;23119;51.842;-2.230;2023-06-14T08:46:29;3.30;;;1.50;;
37221;SDS011;23119;51.842;-2.230;2023-06-14T08:49:01;5.60;;;1.10;;
37221;SDS011;23119;51.842;-2.230;2023-06-14T08:51:28;8.35;;;2.25;;
37221;SDS011;23119;51.842;-2.230;2023-06-14T08:53:59;7.45;;;1.35;;
37221;SDS011;23119;51.842;-2.230;2023-06-14T08:56:29;3.88;;;1.02;;
37221;SDS011;23119;51.842;-2.230;2023-06-14T08:58:57;7.55;;;1.48;;
37221;SDS011;23119;51.842;-2.230;2023-06-14T09:01:36;4.45;;;1.08;;
37221;SDS011;23119;51.842;-2.230;2023-06-14T09:04:05;5.40;;;1.20;;
37221;SDS011;23119;51.842;-2.230;2023-06-14T09:06:36;12.07;;;1.98;;
37221;SDS011;23119;51.842;-2.230;2023-06-14T09:09:02;6.55;;;1.58;;
37221;SDS011;23119;51.842;-2.230;2023-06-14T09:11:29;3.85;;;1.05;;
37221;SDS011;23119;51.842;-2.230;2023-06-14T09:13:55;7.13;;;1.75;;
37221;SDS011;23119;51.842;-2.230;2023-06-14T09:16:21;5.93;;;1.60;;
37221;SDS011;23119;51.842;-2.230;2023-06-14T09:18:54;7.18;;;1.65;;
37221;SDS011;23119;51.842;-2.230;2023-06-14T09:21:22;5.63;;;1.80;;
37221;SDS011;23119;51.842;-2.230;2023-06-14T09:23:53;8.23;;;1.75;;
37221;SDS011;23119;51.842;-2.230;2023-06-14T09:26:21;3.50;;;1.10;;
37221;SDS011;23119;51.842;-2.230;2023-06-14T09:28:52;6.40;;;1.33;;
37221;SDS011;23119;51.842;-2.230;2023-06-14T09:31:20;4.00;;;1.20;;
37221;SDS011;23119;51.842;-2.230;2023-06-14T09:33:50;4.95;;;1.85;;
37221;SDS011;23119;51.842;-2.230;2023-06-14T09:36:19;4.30;;;1.40;;
37221;SDS011;23119;51.842;-2.230;2023-06-14T09:38:53;8.02;;;1.20;;
37221;SDS011;23119;51.842;-2.230;2023-06-14T09:41:21;4.95;;;1.00;;
37221;SDS011;23119;51.842;-2.230;2023-06-14T09:43:57;5.53;;;1.63;;
37221;SDS011;23119;51.842;-2.230;2023-06-14T09:46:26;4.95;;;1.02;;
37221;SDS011;23119;51.842;-2.230;2023-06-14T09:48:55;7.40;;;1.13;;
37221;SDS011;23119;51.842;-2.230;2023-06-14T09:51:22;4.47;;;1.10;;
37221;SDS011;23119;51.842;-2.230;2023-06-14T09:53:49;5.20;;;1.27;;
37221;SDS011;23119;51.842;-2.230;2023-06-14T09:56:23;3.60;;;1.23;;
37221;SDS011;23119;51.842;-2.230;2023-06-14T09:58:56;4.53;;;1.30;;
37221;SDS011;23119;51.842;-2.230;2023-06-14T10:01:26;6.38;;;1.30;;
37221;SDS011;23119;51.842;-2.230;2023-06-14T10:04:04;6.63;;;1.63;;
37221;SDS011;23119;51.842;-2.230;2023-06-14T10:06:50;5.15;;;1.20;;
37221;SDS011;23119;51.842;-2.230;2023-06-14T10:09:17;9.98;;;1.90;;
37221;SDS011;23119;51.842;-2.230;2023-06-14T10:11:44;5.93;;;1.70;;
37221;SDS011;23119;51.842;-2.230;2023-06-14T10:14:12;3.58;;;1.02;;
37221;SDS011;23119;51.842;-2.230;2023-06-14T10:16:47;8.32;;;1.35;;
37221;SDS011;23119;51.842;-2.230;2023-06-14T10:22:30;4.13;;;0.95;;
37221;SDS011;23119;51.842;-2.230;2023-06-14T10:25:01;3.63;;;1.00;;
37221;SDS011;23119;51.842;-2.230;2023-06-14T10:27:43;6.25;;;1.35;;
37221;SDS011;23119;51.842;-2.230;2023-06-14T10:30:11;3.47;;;1.10;;
37221;SDS011;23119;51.842;-2.230;2023-06-14T10:33:03;5.15;;;1.05;;
37221;SDS011;23119;51.842;-2.230;2023-06-14T10:35:29;6.15;;;1.20;;
37221;SDS011;23119;51.842;-2.230;2023-06-14T10:38:07;6.85;;;1.23;;
37221;SDS011;23119;51.842;-2.230;2023-06-14T10:40:37;7.07;;;1.30;;
37221;SDS011;23119;51.842;-2.230;2023-06-14T10:46:18;6.55;;;1.80;;
37221;SDS011;23119;51.842;-2.230;2023-06-14T10:48:47;4.30;;;1.20;;
37221;SDS011;23119;51.842;-2.230;2023-06-14T10:51:20;5.50;;;1.55;;
37221;SDS011;23119;51.842;-2.230;2023-06-14T10:53:53;3.63;;;1.10;;
37221;SDS011;23119;51.842;-2.230;2023-06-14T10:56:27;5.65;;;1.55;;
37221;SDS011;23119;51.842;-2.230;2023-06-14T10:58:53;7.03;;;1.25;;
37221;SDS011;23119;51.842;-2.230;2023-06-14T11:01:23;7.78;;;2.05;;
37221;SDS011;23119;51.842;-2.230;2023-06-14T11:04:08;5.00;;;1.10;;
37221;SDS011;23119;51.842;-2.230;2023-06-14T11:06:47;6.20;;;1.40;;
37221;SDS011;23119;51.842;-2.230;2023-06-14T11:11:55;8.15;;;1.50;;
37221;SDS011;23119;51.842;-2.230;2023-06-14T11:14:25;7.38;;;1.05;;
37221;SDS011;23119;51.842;-2.230;2023-06-14T11:16:51;6.20;;;1.65;;
37221;SDS011;23119;51.842;-2.230;2023-06-14T11:19:16;4.60;;;1.30;;
37221;SDS011;23119;51.842;-2.230;2023-06-14T11:21:46;5.57;;;1.55;;
37221;SDS011;23119;51.842;-2.230;2023-06-14T11:24:13;4.38;;;1.23;;
37221;SDS011;23119;51.842;-2.230;2023-06-14T11:26:39;7.10;;;1.50;;
37221;SDS011;23119;51.842;-2.230;2023-06-14T11:29:15;6.55;;;1.58;;
37221;SDS011;23119;51.842;-2.230;2023-06-14T11:32:13;5.53;;;1.17;;
37221;SDS011;23119;51.842;-2.230;2023-06-14T11:34:39;5.47;;;1.55;;
37221;SDS011;23119;51.842;-2.230;2023-06-14T11:37:07;4.68;;;1.25;;
37221;SDS011;23119;51.842;-2.230;2023-06-14T11:39:35;5.05;;;1.42;;
37221;SDS011;23119;51.842;-2.230;2023-06-14T11:42:01;6.28;;;1.42;;
37221;SDS011;23119;51.842;-2.230;2023-06-14T11:44:28;6.43;;;1.40;;
37221;SDS011;23119;51.842;-2.230;2023-06-14T11:46:54;7.30;;;1.80;;
37221;SDS011;23119;51.842;-2.230;2023-06-14T11:49:22;8.32;;;1.58;;
37221;SDS011;23119;51.842;-2.230;2023-06-14T11:51:51;4.68;;;1.10;;
37221;SDS011;23119;51.842;-2.230;2023-06-14T11:54:21;3.45;;;1.10;;
37221;SDS011;23119;51.842;-2.230;2023-06-14T11:56:49;3.40;;;1.27;;
37221;SDS011;23119;51.842;-2.230;2023-06-14T11:59:16;7.47;;;1.35;;
37221;SDS011;23119;51.842;-2.230;2023-06-14T12:01:45;5.00;;;1.17;;
37221;SDS011;23119;51.842;-2.230;2023-06-14T12:04:12;5.65;;;1.00;;
37221;SDS011;23119;51.842;-2.230;2023-06-14T12:06:38;4.50;;;1.25;;
37221;SDS011;23119;51.842;-2.230;2023-06-14T12:09:06;3.92;;;1.60;;
37221;SDS011;23119;51.842;-2.230;2023-06-14T12:11:38;6.22;;;1.85;;
37221;SDS011;23119;51.842;-2.230;2023-06-14T12:14:04;7.22;;;1.80;;
37221;SDS011;23119;51.842;-2.230;2023-06-14T12:16:34;5.72;;;1.20;;
37221;SDS011;23119;51.842;-2.230;2023-06-14T12:19:35;3.45;;;1.20;;
37221;SDS011;23119;51.842;-2.230;2023-06-14T12:21:58;6.88;;;1.42;;
37221;SDS011;23119;51.842;-2.230;2023-06-14T12:24:30;3.72;;;1.30;;
37221;SDS011;23119;51.842;-2.230;2023-06-14T12:27:01;6.20;;;1.77;;
37221;SDS011;23119;51.842;-2.230;2023-06-14T12:29:30;4.10;;;1.20;;
37221;SDS011;23119;51.842;-2.230;2023-06-14T12:32:05;6.10;;;1.63;;
37221;SDS011;23119;51.842;-2.230;2023-06-14T12:34:31;6.28;;;1.20;;
37221;SDS011;23119;51.842;-2.230;2023-06-14T12:36:57;5.53;;;1.98;;
37221;SDS011;23119;51.842;-2.230;2023-06-14T12:39:28;4.32;;;1.30;;
37221;SDS011;23119;51.842;-2.230;2023-06-14T12:41:56;7.28;;;1.70;;
37221;SDS011;23119;51.842;-2.230;2023-06-14T12:44:25;6.85;;;1.92;;
37221;SDS011;23119;51.842;-2.230;2023-06-14T12:46:50;3.55;;;1.25;;
37221;SDS011;23119;51.842;-2.230;2023-06-14T12:49:18;4.03;;;1.60;;
37221;SDS011;23119;51.842;-2.230;2023-06-14T12:51:46;4.07;;;1.83;;
37221;SDS011;23119;51.842;-2.230;2023-06-14T12:54:11;5.57;;;1.42;;
37221;SDS011;23119;51.842;-2.230;2023-06-14T12:56:42;5.15;;;1.55;;
37221;SDS011;23119;51.842;-2.230;2023-06-14T12:59:09;4.72;;;1.23;;
37221;SDS011;23119;51.842;-2.230;2023-06-14T13:01:37;5.57;;;1.50;;
37221;SDS011;23119;51.842;-2.230;2023-06-14T13:04:06;5.32;;;1.77;;
37221;SDS011;23119;51.842;-2.230;2023-06-14T13:06:35;4.68;;;1.55;;
37221;SDS011;23119;51.842;-2.230;2023-06-14T13:09:00;6.40;;;1.60;;
37221;SDS011;23119;51.842;-2.230;2023-06-14T13:11:29;7.72;;;1.60;;
37221;SDS011;23119;51.842;-2.230;2023-06-14T13:13:55;6.25;;;1.45;;
37221;SDS011;23119;51.842;-2.230;2023-06-14T13:16:26;4.03;;;1.25;;
37221;SDS011;23119;51.842;-2.230;2023-06-14T13:18:57;8.00;;;1.40;;
37221;SDS011;23119;51.842;-2.230;2023-06-14T13:21:26;4.40;;;1.73;;
37221;SDS011;23119;51.842;-2.230;2023-06-14T13:23:51;3.83;;;1.30;;
37221;SDS011;23119;51.842;-2.230;2023-06-14T13:26:22;5.72;;;1.55;;
37221;SDS011;23119;51.842;-2.230;2023-06-14T13:28:48;4.43;;;1.48;;
37221;SDS011;23119;51.842;-2.230;2023-06-14T13:31:14;6.05;;;1.50;;
37221;SDS011;23119;51.842;-2.230;2023-06-14T13:33:48;4.95;;;1.80;;
37221;SDS011;23119;51.842;-2.230;2023-06-14T13:36:16;4.47;;;1.80;;
37221;SDS011;23119;51.842;-2.230;2023-06-14T13:38:42;5.60;;;1.35;;
37221;SDS011;23119;51.842;-2.230;2023-06-14T13:41:08;5.43;;;2.00;;
37221;SDS011;23119;51.842;-2.230;2023-06-14T13:43:36;5.75;;;1.70;;
37221;SDS011;23119;51.842;-2.230;2023-06-14T13:46:01;4.15;;;1.50;;
37221;SDS011;23119;51.842;-2.230;2023-06-14T13:48:30;4.72;;;1.80;;
37221;SDS011;23119;51.842;-2.230;2023-06-14T13:51:01;8.52;;;1.73;;
37221;SDS011;23119;51.842;-2.230;2023-06-14T13:53:29;5.38;;;1.60;;
37221;SDS011;23119;51.842;-2.230;2023-06-14T13:55:59;3.78;;;1.80;;
37221;SDS011;23119;51.842;-2.230;2023-06-14T13:58:25;4.38;;;1.52;;
37221;SDS011;23119;51.842;-2.230;2023-06-14T14:00:51;5.75;;;1.67;;
37221;SDS011;23119;51.842;-2.230;2023-06-14T14:03:17;6.68;;;1.63;;
37221;SDS011;23119;51.842;-2.230;2023-06-14T14:05:44;5.20;;;2.10;;
37221;SDS011;23119;51.842;-2.230;2023-06-14T14:08:13;6.90;;;1.85;;
37221;SDS011;23119;51.842;-2.230;2023-06-14T14:10:43;4.72;;;1.75;;
37221;SDS011;23119;51.842;-2.230;2023-06-14T14:13:09;4.10;;;1.25;;
37221;SDS011;23119;51.842;-2.230;2023-06-14T14:15:37;5.75;;;1.70;;
37221;SDS011;23119;51.842;-2.230;2023-06-14T14:18:03;6.90;;;2.85;;
37221;SDS011;23119;51.842;-2.230;2023-06-14T14:20:32;3.97;;;1.95;;
37221;SDS011;23119;51.842;-2.230;2023-06-14T14:23:00;4.15;;;1.25;;
37221;SDS011;23119;51.842;-2.230;2023-06-14T14:25:27;4.03;;;1.55;;
37221;SDS011;23119;51.842;-2.230;2023-06-14T14:27:53;3.85;;;1.70;;
37221;SDS011;23119;51.842;-2.230;2023-06-14T14:30:19;4.68;;;1.48;;
37221;SDS011;23119;51.842;-2.230;2023-06-14T14:32:49;3.88;;;1.42;;
37221;SDS011;23119;51.842;-2.230;2023-06-14T14:35:18;5.63;;;1.70;;
37221;SDS011;23119;51.842;-2.230;2023-06-14T14:37:44;6.05;;;2.05;;
37221;SDS011;23119;51.842;-2.230;2023-06-14T14:40:10;3.47;;;1.98;;
37221;SDS011;23119;51.842;-2.230;2023-06-14T14:42:37;3.35;;;1.92;;
37221;SDS011;23119;51.842;-2.230;2023-06-14T14:45:05;3.22;;;1.60;;
37221;SDS011;23119;51.842;-2.230;2023-06-14T14:47:34;3.70;;;1.50;;
37221;SDS011;23119;51.842;-2.230;2023-06-14T14:50:00;6.88;;;1.73;;
37221;SDS011;23119;51.842;-2.230;2023-06-14T14:52:30;4.72;;;1.75;;
37221;SDS011;23119;51.842;-2.230;2023-06-14T14:54:58;3.83;;;1.77;;
37221;SDS011;23119;51.842;-2.230;2023-06-14T14:57:27;3.08;;;1.33;;
37221;SDS011;23119;51.842;-2.230;2023-06-14T14:59:58;8.48;;;2.63;;